sensor_id;sensor_type;location;lat;lon;timestamp;P1;durP1;ratioP1;P2;durP2;ratioP2
81712;SDS011;71124;44.102;3.080;2023-09-19T00:01:15;4.00;;;1.00;;
81712;SDS011;71124;44.102;3.080;2023-09-19T00:03:40;2.57;;;1.00;;
81712;SDS011;71124;44.102;3.080;2023-09-19T00:06:07;4.00;;;0.80;;
81712;SDS011;71124;44.102;3.080;2023-09-19T00:08:33;2.95;;;1.08;;
81712;SDS011;71124;44.102;3.080;2023-09-19T00:10:58;1.80;;;1.00;;
81712;SDS011;71124;44.102;3.080;2023-09-19T00:13:30;3.17;;;0.98;;
81712;SDS011;71124;44.102;3.080;2023-09-19T00:15:56;3.22;;;0.90;;
81712;SDS011;71124;44.102;3.080;2023-09-19T00:18:23;3.58;;;1.10;;
81712;SDS011;71124;44.102;3.080;2023-09-19T00:20:53;3.58;;;0.80;;
81712;SDS011;71124;44.102;3.080;2023-09-19T00:23:21;3.70;;;0.95;;
81712;SDS011;71124;44.102;3.080;2023-09-19T00:25:47;4.13;;;1.10;;
81712;SDS011;71124;44.102;3.080;2023-09-19T00:28:12;2.83;;;0.90;;
81712;SDS011;71124;44.102;3.080;2023-09-19T00:30:37;5.50;;;1.23;;
81712;SDS011;71124;44.102;3.080;2023-09-19T00:33:05;3.50;;;0.90;;
81712;SDS011;71124;44.102;3.080;2023-09-19T00:35:32;3.33;;;1.00;;
81712;SDS011;71124;44.102;3.080;2023-09-19T00:37:58;3.28;;;1.05;;
81712;SDS011;71124;44.102;3.080;2023-09-19T00:40:23;4.63;;;1.07;;
81712;SDS011;71124;44.102;3.080;2023-09-19T00:42:49;4.03;;;0.90;;
81712;SDS011;71124;44.102;3.080;2023-09-19T00:45:16;3.70;;;1.10;;
81712;SDS011;71124;44.102;3.080;2023-09-19T00:47:49;3.75;;;1.23;;
81712;SDS011;71124;44.102;3.080;2023-09-19T00:50:15;5.65;;;1.30;;
81712;SDS011;71124;44.102;3.080;2023-09-19T00:52:42;4.63;;;1.00;;
81712;SDS011;71124;44.102;3.080;2023-09-19T00:55:09;3.58;;;1.25;;
81712;SDS011;71124;44.102;3.080;2023-09-19T00:57:34;2.38;;;0.95;;
81712;SDS011;71124;44.102;3.080;2023-09-19T01:00:01;3.22;;;1.10;;
81712;SDS011;71124;44.102;3.080;2023-09-19T01:02:33;3.85;;;1.10;;
81712;SDS011;71124;44.102;3.080;2023-09-19T01:04:59;5.40;;;1.50;;
81712;SDS011;71124;44.102;3.080;2023-09-19T01:07:29;6.07;;;1.10;;
81712;SDS011;71124;44.102;3.080;2023-09-19T01:09:55;4.25;;;1.25;;
81712;SDS011;71124;44.102;3.080;2023-09-19T01:12:25;4.28;;;1.83;;
81712;SDS011;71124;44.102;3.080;2023-09-19T01:14:59;6.05;;;1.20;;
81712;SDS011;71124;44.102;3.080;2023-09-19T01:17:30;3.40;;;1.00;;
81712;SDS011;71124;44.102;3.080;2023-09-19T01:20:07;2.90;;;0.95;;
81712;SDS011;71124;44.102;3.080;2023-09-19T01:32:34;2.20;;;1.07;;
81712;SDS011;71124;44.102;3.080;2023-09-19T01:34:59;4.60;;;1.25;;
81712;SDS011;71124;44.102;3.080;2023-09-19T01:37:30;2.75;;;1.00;;
81712;SDS011;71124;44.102;3.080;2023-09-19T01:47:35;3.90;;;0.90;;
81712;SDS011;71124;44.102;3.080;2023-09-19T01:50:11;3.55;;;1.00;;
81712;SDS011;71124;44.102;3.080;2023-09-19T01:52:38;3.55;;;1.13;;
81712;SDS011;71124;44.102;3.080;2023-09-19T01:55:09;2.58;;;1.02;;
81712;SDS011;71124;44.102;3.080;2023-09-19T01:57:38;3.53;;;0.95;;
81712;SDS011;71124;44.102;3.080;2023-09-19T02:00:09;3.45;;;1.00;;
81712;SDS011;71124;44.102;3.080;2023-09-19T02:02:37;3.38;;;0.95;;
81712;SDS011;71124;44.102;3.080;2023-09-19T02:05:03;2.92;;;0.90;;
81712;SDS011;71124;44.102;3.080;2023-09-19T02:07:29;3.05;;;0.90;;
81712;SDS011;71124;44.102;3.080;2023-09-19T02:09:56;3.33;;;1.10;;
81712;SDS011;71124;44.102;3.080;2023-09-19T02:12:22;5.07;;;1.20;;
81712;SDS011;71124;44.102;3.080;2023-09-19T02:14:48;3.22;;;1.13;;
81712;SDS011;71124;44.102;3.080;2023-09-19T02:17:13;5.80;;;1.10;;
81712;SDS011;71124;44.102;3.080;2023-09-19T02:19:38;4.97;;;1.20;;
81712;SDS011;71124;44.102;3.080;2023-09-19T02:22:04;3.70;;;1.10;;
81712;SDS011;71124;44.102;3.080;2023-09-19T02:24:34;5.10;;;1.25;;
81712;SDS011;71124;44.102;3.080;2023-09-19T02:27:00;4.30;;;1.10;;
81712;SDS011;71124;44.102;3.080;2023-09-19T02:29:29;6.03;;;1.20;;
81712;SDS011;71124;44.102;3.080;2023-09-19T02:31:55;6.10;;;1.10;;
81712;SDS011;71124;44.102;3.080;2023-09-19T02:34:21;2.83;;;0.90;;
81712;SDS011;71124;44.102;3.080;2023-09-19T02:36:46;4.28;;;1.00;;
81712;SDS011;71124;44.102;3.080;2023-09-19T02:39:11;4.13;;;1.20;;
81712;SDS011;71124;44.102;3.080;2023-09-19T02:41:37;2.90;;;1.02;;
81712;SDS011;71124;44.102;3.080;2023-09-19T02:44:03;4.13;;;1.20;;
81712;SDS011;71124;44.102;3.080;2023-09-19T02:46:32;2.28;;;1.13;;
81712;SDS011;71124;44.102;3.080;2023-09-19T02:48:58;3.88;;;1.05;;
81712;SDS011;71124;44.102;3.080;2023-09-19T02:51:23;6.40;;;1.10;;
81712;SDS011;71124;44.102;3.080;2023-09-19T02:53:49;4.37;;;1.00;;
81712;SDS011;71124;44.102;3.080;2023-09-19T02:56:14;3.42;;;1.08;;
81712;SDS011;71124;44.102;3.080;2023-09-19T02:58:40;4.25;;;0.95;;
81712;SDS011;71124;44.102;3.080;2023-09-19T03:01:09;3.57;;;1.30;;
81712;SDS011;71124;44.102;3.080;2023-09-19T03:03:36;2.60;;;1.00;;
81712;SDS011;71124;44.102;3.080;2023-09-19T03:06:04;3.30;;;1.10;;
81712;SDS011;71124;44.102;3.080;2023-09-19T03:08:29;3.10;;;1.00;;
81712;SDS011;71124;44.102;3.080;2023-09-19T03:10:55;2.53;;;1.10;;
81712;SDS011;71124;44.102;3.080;2023-09-19T03:13:20;3.13;;;1.07;;
81712;SDS011;71124;44.102;3.080;2023-09-19T03:15:45;5.03;;;0.90;;
81712;SDS011;71124;44.102;3.080;2023-09-19T03:18:15;2.92;;;1.00;;
81712;SDS011;71124;44.102;3.080;2023-09-19T03:20:40;3.40;;;0.90;;
81712;SDS011;71124;44.102;3.080;2023-09-19T03:23:06;4.57;;;1.00;;
81712;SDS011;71124;44.102;3.080;2023-09-19T03:25:33;7.63;;;1.85;;
81712;SDS011;71124;44.102;3.080;2023-09-19T03:27:59;4.60;;;1.30;;
81712;SDS011;71124;44.102;3.080;2023-09-19T03:30:24;6.60;;;1.27;;
81712;SDS011;71124;44.102;3.080;2023-09-19T03:32:51;4.97;;;1.00;;
81712;SDS011;71124;44.102;3.080;2023-09-19T03:35:17;6.95;;;1.98;;
81712;SDS011;71124;44.102;3.080;2023-09-19T03:37:42;6.32;;;1.50;;
81712;SDS011;71124;44.102;3.080;2023-09-19T03:40:08;4.32;;;1.10;;
81712;SDS011;71124;44.102;3.080;2023-09-19T03:42:37;4.13;;;1.23;;
81712;SDS011;71124;44.102;3.080;2023-09-19T03:45:02;7.45;;;1.48;;
81712;SDS011;71124;44.102;3.080;2023-09-19T03:47:28;6.45;;;1.30;;
81712;SDS011;71124;44.102;3.080;2023-09-19T03:49:53;7.17;;;1.37;;
81712;SDS011;71124;44.102;3.080;2023-09-19T03:52:19;6.00;;;1.20;;
81712;SDS011;71124;44.102;3.080;2023-09-19T03:54:44;5.67;;;1.80;;
81712;SDS011;71124;44.102;3.080;2023-09-19T03:57:10;5.20;;;1.42;;
81712;SDS011;71124;44.102;3.080;2023-09-19T03:59:35;3.97;;;1.13;;
81712;SDS011;71124;44.102;3.080;2023-09-19T04:02:00;8.43;;;2.47;;
81712;SDS011;71124;44.102;3.080;2023-09-19T04:04:27;9.48;;;2.25;;
81712;SDS011;71124;44.102;3.080;2023-09-19T04:06:54;7.10;;;1.40;;
81712;SDS011;71124;44.102;3.080;2023-09-19T04:09:19;12.88;;;4.13;;
81712;SDS011;71124;44.102;3.080;2023-09-19T04:11:44;8.30;;;2.30;;
81712;SDS011;71124;44.102;3.080;2023-09-19T04:14:10;7.20;;;1.77;;
81712;SDS011;71124;44.102;3.080;2023-09-19T04:16:35;5.30;;;1.20;;
81712;SDS011;71124;44.102;3.080;2023-09-19T04:19:00;9.00;;;1.52;;
81712;SDS011;71124;44.102;3.080;2023-09-19T04:21:26;7.27;;;1.50;;
81712;SDS011;71124;44.102;3.080;2023-09-19T04:23:52;7.13;;;1.20;;
81712;SDS011;71124;44.102;3.080;2023-09-19T04:26:18;5.67;;;1.40;;
81712;SDS011;71124;44.102;3.080;2023-09-19T04:28:43;7.30;;;1.50;;
81712;SDS011;71124;44.102;3.080;2023-09-19T04:31:09;6.72;;;1.42;;
81712;SDS011;71124;44.102;3.080;2023-09-19T04:33:35;2.92;;;1.40;;
81712;SDS011;71124;44.102;3.080;2023-09-19T04:36:00;5.32;;;1.50;;
81712;SDS011;71124;44.102;3.080;2023-09-19T04:38:26;5.47;;;1.53;;
81712;SDS011;71124;44.102;3.080;2023-09-19T04:40:56;11.95;;;3.63;;
81712;SDS011;71124;44.102;3.080;2023-09-19T04:43:21;5.40;;;1.80;;
81712;SDS011;71124;44.102;3.080;2023-09-19T04:45:47;6.53;;;2.37;;
81712;SDS011;71124;44.102;3.080;2023-09-19T04:48:12;5.23;;;1.33;;
81712;SDS011;71124;44.102;3.080;2023-09-19T04:50:41;5.32;;;1.23;;
81712;SDS011;71124;44.102;3.080;2023-09-19T04:53:06;5.13;;;1.03;;
81712;SDS011;71124;44.102;3.080;2023-09-19T04:55:32;4.35;;;1.10;;
81712;SDS011;71124;44.102;3.080;2023-09-19T04:57:57;5.07;;;1.23;;
81712;SDS011;71124;44.102;3.080;2023-09-19T05:00:23;5.00;;;1.38;;
81712;SDS011;71124;44.102;3.080;2023-09-19T05:02:52;4.03;;;1.35;;
81712;SDS011;71124;44.102;3.080;2023-09-19T05:05:20;6.97;;;1.48;;
81712;SDS011;71124;44.102;3.080;2023-09-19T05:07:45;4.55;;;1.60;;
81712;SDS011;71124;44.102;3.080;2023-09-19T05:10:11;5.95;;;1.25;;
81712;SDS011;71124;44.102;3.080;2023-09-19T05:12:39;8.77;;;1.52;;
81712;SDS011;71124;44.102;3.080;2023-09-19T05:15:05;7.03;;;1.27;;
81712;SDS011;71124;44.102;3.080;2023-09-19T05:17:34;6.00;;;1.25;;
81712;SDS011;71124;44.102;3.080;2023-09-19T05:20:00;4.78;;;1.30;;
81712;SDS011;71124;44.102;3.080;2023-09-19T05:23:00;7.18;;;1.67;;
81712;SDS011;71124;44.102;3.080;2023-09-19T05:25:28;5.90;;;1.17;;
81712;SDS011;71124;44.102;3.080;2023-09-19T05:27:55;5.18;;;1.50;;
81712;SDS011;71124;44.102;3.080;2023-09-19T05:30:21;7.15;;;1.40;;
81712;SDS011;71124;44.102;3.080;2023-09-19T05:32:47;6.55;;;1.33;;
81712;SDS011;71124;44.102;3.080;2023-09-19T05:35:12;10.63;;;2.13;;
81712;SDS011;71124;44.102;3.080;2023-09-19T05:37:38;4.28;;;1.33;;
81712;SDS011;71124;44.102;3.080;2023-09-19T05:40:04;4.20;;;1.30;;
81712;SDS011;71124;44.102;3.080;2023-09-19T05:42:37;5.38;;;1.30;;
81712;SDS011;71124;44.102;3.080;2023-09-19T05:45:03;5.03;;;1.27;;
81712;SDS011;71124;44.102;3.080;2023-09-19T05:47:30;6.82;;;1.58;;
81712;SDS011;71124;44.102;3.080;2023-09-19T05:49:56;5.97;;;1.20;;
81712;SDS011;71124;44.102;3.080;2023-09-19T05:52:21;5.10;;;1.60;;
81712;SDS011;71124;44.102;3.080;2023-09-19T05:54:47;6.43;;;1.30;;
81712;SDS011;71124;44.102;3.080;2023-09-19T05:57:12;4.65;;;1.33;;
81712;SDS011;71124;44.102;3.080;2023-09-19T05:59:38;6.07;;;1.60;;
81712;SDS011;71124;44.102;3.080;2023-09-19T06:02:05;7.03;;;1.50;;
81712;SDS011;71124;44.102;3.080;2023-09-19T06:04:31;5.47;;;1.50;;
81712;SDS011;71124;44.102;3.080;2023-09-19T06:06:56;6.60;;;1.40;;
81712;SDS011;71124;44.102;3.080;2023-09-19T06:09:21;6.50;;;1.40;;
81712;SDS011;71124;44.102;3.080;2023-09-19T06:11:48;5.18;;;1.30;;
81712;SDS011;71124;44.102;3.080;2023-09-19T06:14:13;11.27;;;1.60;;
81712;SDS011;71124;44.102;3.080;2023-09-19T06:16:39;5.57;;;1.23;;
81712;SDS011;71124;44.102;3.080;2023-09-19T06:19:06;8.15;;;1.63;;
81712;SDS011;71124;44.102;3.080;2023-09-19T06:21:35;8.18;;;1.85;;
81712;SDS011;71124;44.102;3.080;2023-09-19T06:24:00;7.22;;;1.17;;
81712;SDS011;71124;44.102;3.080;2023-09-19T06:26:26;6.13;;;1.37;;
81712;SDS011;71124;44.102;3.080;2023-09-19T06:28:52;7.88;;;1.50;;
81712;SDS011;71124;44.102;3.080;2023-09-19T06:31:17;6.57;;;1.50;;
81712;SDS011;71124;44.102;3.080;2023-09-19T06:33:43;6.70;;;1.33;;
81712;SDS011;71124;44.102;3.080;2023-09-19T06:36:08;7.95;;;1.48;;
81712;SDS011;71124;44.102;3.080;2023-09-19T06:38:34;7.57;;;1.65;;
81712;SDS011;71124;44.102;3.080;2023-09-19T06:41:01;4.75;;;1.23;;
81712;SDS011;71124;44.102;3.080;2023-09-19T06:43:26;8.57;;;1.50;;
81712;SDS011;71124;44.102;3.080;2023-09-19T06:45:52;4.22;;;1.42;;
81712;SDS011;71124;44.102;3.080;2023-09-19T06:48:20;6.32;;;1.30;;
81712;SDS011;71124;44.102;3.080;2023-09-19T06:50:46;6.95;;;1.63;;
81712;SDS011;71124;44.102;3.080;2023-09-19T06:53:13;8.23;;;1.48;;
81712;SDS011;71124;44.102;3.080;2023-09-19T06:55:38;8.23;;;1.50;;
81712;SDS011;71124;44.102;3.080;2023-09-19T06:58:04;4.57;;;1.38;;
81712;SDS011;71124;44.102;3.080;2023-09-19T07:00:31;7.57;;;2.00;;
81712;SDS011;71124;44.102;3.080;2023-09-19T07:03:02;6.05;;;1.38;;
81712;SDS011;71124;44.102;3.080;2023-09-19T07:05:28;7.70;;;1.58;;
81712;SDS011;71124;44.102;3.080;2023-09-19T07:07:54;7.18;;;1.60;;
81712;SDS011;71124;44.102;3.080;2023-09-19T07:10:28;6.30;;;1.30;;
81712;SDS011;71124;44.102;3.080;2023-09-19T07:12:56;8.00;;;1.50;;
81712;SDS011;71124;44.102;3.080;2023-09-19T07:15:23;7.20;;;1.70;;
81712;SDS011;71124;44.102;3.080;2023-09-19T07:17:49;11.15;;;1.77;;
81712;SDS011;71124;44.102;3.080;2023-09-19T07:20:15;7.13;;;1.50;;
81712;SDS011;71124;44.102;3.080;2023-09-19T07:22:41;5.85;;;1.30;;
81712;SDS011;71124;44.102;3.080;2023-09-19T07:25:06;5.57;;;1.50;;
81712;SDS011;71124;44.102;3.080;2023-09-19T07:27:32;5.30;;;1.40;;
81712;SDS011;71124;44.102;3.080;2023-09-19T07:29:57;8.97;;;1.50;;
81712;SDS011;71124;44.102;3.080;2023-09-19T07:32:23;7.28;;;1.33;;
81712;SDS011;71124;44.102;3.080;2023-09-19T07:34:49;8.80;;;1.55;;
81712;SDS011;71124;44.102;3.080;2023-09-19T07:37:14;8.90;;;1.60;;
81712;SDS011;71124;44.102;3.080;2023-09-19T07:39:40;5.03;;;1.20;;
81712;SDS011;71124;44.102;3.080;2023-09-19T07:42:06;4.97;;;1.35;;
81712;SDS011;71124;44.102;3.080;2023-09-19T07:44:32;6.13;;;1.40;;
81712;SDS011;71124;44.102;3.080;2023-09-19T07:46:57;10.02;;;1.45;;
81712;SDS011;71124;44.102;3.080;2023-09-19T07:49:23;7.17;;;1.37;;
81712;SDS011;71124;44.102;3.080;2023-09-19T07:51:48;5.00;;;1.45;;
81712;SDS011;71124;44.102;3.080;2023-09-19T07:54:13;5.80;;;1.40;;
81712;SDS011;71124;44.102;3.080;2023-09-19T07:56:39;4.25;;;1.25;;
81712;SDS011;71124;44.102;3.080;2023-09-19T07:59:05;6.53;;;1.40;;
81712;SDS011;71124;44.102;3.080;2023-09-19T08:01:30;6.13;;;1.43;;
81712;SDS011;71124;44.102;3.080;2023-09-19T08:03:56;6.00;;;1.15;;
81712;SDS011;71124;44.102;3.080;2023-09-19T08:06:21;5.60;;;1.10;;
81712;SDS011;71124;44.102;3.080;2023-09-19T08:08:46;6.67;;;1.30;;
81712;SDS011;71124;44.102;3.080;2023-09-19T08:11:12;5.88;;;1.25;;
81712;SDS011;71124;44.102;3.080;2023-09-19T08:13:40;4.93;;;1.60;;
81712;SDS011;71124;44.102;3.080;2023-09-19T08:16:09;3.45;;;1.02;;
81712;SDS011;71124;44.102;3.080;2023-09-19T08:18:35;3.50;;;1.17;;
81712;SDS011;71124;44.102;3.080;2023-09-19T08:21:00;3.57;;;1.20;;
81712;SDS011;71124;44.102;3.080;2023-09-19T08:23:25;8.40;;;1.77;;
81712;SDS011;71124;44.102;3.080;2023-09-19T08:25:55;3.25;;;1.00;;
81712;SDS011;71124;44.102;3.080;2023-09-19T08:28:21;4.88;;;1.20;;
81712;SDS011;71124;44.102;3.080;2023-09-19T08:30:49;5.75;;;1.00;;
81712;SDS011;71124;44.102;3.080;2023-09-19T08:33:15;3.88;;;1.20;;
81712;SDS011;71124;44.102;3.080;2023-09-19T08:35:41;5.70;;;1.38;;
81712;SDS011;71124;44.102;3.080;2023-09-19T08:38:08;4.57;;;1.35;;
81712;SDS011;71124;44.102;3.080;2023-09-19T08:40:37;4.03;;;1.40;;
81712;SDS011;71124;44.102;3.080;2023-09-19T08:43:04;2.53;;;1.38;;
81712;SDS011;71124;44.102;3.080;2023-09-19T08:45:32;3.20;;;1.33;;
81712;SDS011;71124;44.102;3.080;2023-09-19T08:50:26;7.47;;;1.27;;
81712;SDS011;71124;44.102;3.080;2023-09-19T08:52:53;3.22;;;1.20;;
81712;SDS011;71124;44.102;3.080;2023-09-19T08:55:20;3.00;;;1.58;;
81712;SDS011;71124;44.102;3.080;2023-09-19T08:57:51;2.70;;;0.95;;
81712;SDS011;71124;44.102;3.080;2023-09-19T09:00:17;2.92;;;1.00;;
81712;SDS011;71124;44.102;3.080;2023-09-19T09:02:43;2.50;;;1.00;;
81712;SDS011;71124;44.102;3.080;2023-09-19T09:05:09;1.88;;;0.82;;
81712;SDS011;71124;44.102;3.080;2023-09-19T09:07:39;3.65;;;1.00;;
81712;SDS011;71124;44.102;3.080;2023-09-19T09:10:05;3.60;;;1.20;;
81712;SDS011;71124;44.102;3.080;2023-09-19T09:12:31;4.45;;;1.33;;
81712;SDS011;71124;44.102;3.080;2023-09-19T09:14:56;2.63;;;0.90;;
81712;SDS011;71124;44.102;3.080;2023-09-19T09:17:25;4.25;;;1.00;;
81712;SDS011;71124;44.102;3.080;2023-09-19T09:19:53;3.38;;;1.20;;
81712;SDS011;71124;44.102;3.080;2023-09-19T09:22:18;4.22;;;1.73;;
81712;SDS011;71124;44.102;3.080;2023-09-19T09:27:19;1.67;;;1.00;;
81712;SDS011;71124;44.102;3.080;2023-09-19T09:29:45;2.75;;;1.13;;
81712;SDS011;71124;44.102;3.080;2023-09-19T09:34:46;2.20;;;1.27;;
81712;SDS011;71124;44.102;3.080;2023-09-19T09:37:13;3.03;;;1.40;;
81712;SDS011;71124;44.102;3.080;2023-09-19T09:39:40;3.13;;;1.15;;
81712;SDS011;71124;44.102;3.080;2023-09-19T09:42:05;2.30;;;0.90;;
81712;SDS011;71124;44.102;3.080;2023-09-19T09:44:31;2.78;;;1.00;;
81712;SDS011;71124;44.102;3.080;2023-09-19T09:46:57;3.28;;;0.90;;
81712;SDS011;71124;44.102;3.080;2023-09-19T09:49:47;2.70;;;1.00;;
81712;SDS011;71124;44.102;3.080;2023-09-19T09:52:19;2.22;;;1.17;;
81712;SDS011;71124;44.102;3.080;2023-09-19T09:55:02;2.15;;;1.05;;
81712;SDS011;71124;44.102;3.080;2023-09-19T09:57:31;2.05;;;0.93;;
81712;SDS011;71124;44.102;3.080;2023-09-19T09:59:59;1.83;;;0.90;;
81712;SDS011;71124;44.102;3.080;2023-09-19T10:02:36;1.77;;;1.10;;
81712;SDS011;71124;44.102;3.080;2023-09-19T10:05:12;1.43;;;1.00;;
81712;SDS011;71124;44.102;3.080;2023-09-19T10:07:53;3.83;;;1.05;;
81712;SDS011;71124;44.102;3.080;2023-09-19T10:10:37;2.58;;;1.20;;
81712;SDS011;71124;44.102;3.080;2023-09-19T10:13:23;2.53;;;1.45;;
81712;SDS011;71124;44.102;3.080;2023-09-19T10:15:52;2.35;;;1.20;;
81712;SDS011;71124;44.102;3.080;2023-09-19T10:20:45;2.50;;;1.13;;
81712;SDS011;71124;44.102;3.080;2023-09-19T10:23:11;2.10;;;1.00;;
81712;SDS011;71124;44.102;3.080;2023-09-19T10:25:43;4.45;;;1.17;;
81712;SDS011;71124;44.102;3.080;2023-09-19T10:28:11;6.07;;;1.17;;
81712;SDS011;71124;44.102;3.080;2023-09-19T10:30:39;2.17;;;1.20;;
81712;SDS011;71124;44.102;3.080;2023-09-19T10:33:09;2.35;;;1.40;;
81712;SDS011;71124;44.102;3.080;2023-09-19T10:35:35;3.25;;;1.30;;
81712;SDS011;71124;44.102;3.080;2023-09-19T10:38:05;2.53;;;1.35;;
81712;SDS011;71124;44.102;3.080;2023-09-19T10:40:32;3.13;;;1.48;;
81712;SDS011;71124;44.102;3.080;2023-09-19T10:43:01;2.40;;;1.35;;
81712;SDS011;71124;44.102;3.080;2023-09-19T10:45:33;2.78;;;1.50;;
81712;SDS011;71124;44.102;3.080;2023-09-19T10:48:02;4.55;;;1.50;;
81712;SDS011;71124;44.102;3.080;2023-09-19T10:50:50;2.67;;;1.40;;
81712;SDS011;71124;44.102;3.080;2023-09-19T10:53:14;2.63;;;1.50;;
81712;SDS011;71124;44.102;3.080;2023-09-19T10:55:40;3.17;;;1.15;;
81712;SDS011;71124;44.102;3.080;2023-09-19T10:58:06;2.63;;;1.20;;
81712;SDS011;71124;44.102;3.080;2023-09-19T11:00:53;2.90;;;1.50;;
81712;SDS011;71124;44.102;3.080;2023-09-19T11:03:19;2.28;;;1.58;;
81712;SDS011;71124;44.102;3.080;2023-09-19T11:06:05;2.58;;;1.30;;
81712;SDS011;71124;44.102;3.080;2023-09-19T11:22:18;3.10;;;1.30;;
81712;SDS011;71124;44.102;3.080;2023-09-19T11:24:44;2.38;;;1.48;;
81712;SDS011;71124;44.102;3.080;2023-09-19T11:27:14;2.80;;;1.42;;
81712;SDS011;71124;44.102;3.080;2023-09-19T11:29:40;2.08;;;1.48;;
81712;SDS011;71124;44.102;3.080;2023-09-19T11:32:05;2.45;;;1.30;;
81712;SDS011;71124;44.102;3.080;2023-09-19T11:42:44;2.42;;;1.50;;
81712;SDS011;71124;44.102;3.080;2023-09-19T11:47:55;2.20;;;1.50;;
81712;SDS011;71124;44.102;3.080;2023-09-19T11:50:21;1.90;;;1.50;;
81712;SDS011;71124;44.102;3.080;2023-09-19T11:52:49;3.00;;;1.45;;
81712;SDS011;71124;44.102;3.080;2023-09-19T11:55:15;3.03;;;1.63;;
81712;SDS011;71124;44.102;3.080;2023-09-19T11:57:44;3.35;;;1.40;;
81712;SDS011;71124;44.102;3.080;2023-09-19T12:00:16;2.37;;;1.63;;
81712;SDS011;71124;44.102;3.080;2023-09-19T12:02:42;2.42;;;1.60;;
81712;SDS011;71124;44.102;3.080;2023-09-19T12:05:11;2.13;;;1.33;;
81712;SDS011;71124;44.102;3.080;2023-09-19T12:07:43;1.98;;;1.30;;
81712;SDS011;71124;44.102;3.080;2023-09-19T12:10:12;3.40;;;1.50;;
81712;SDS011;71124;44.102;3.080;2023-09-19T12:12:39;2.95;;;1.20;;
81712;SDS011;71124;44.102;3.080;2023-09-19T12:15:05;2.10;;;1.55;;
81712;SDS011;71124;44.102;3.080;2023-09-19T12:17:35;2.53;;;1.25;;
81712;SDS011;71124;44.102;3.080;2023-09-19T12:20:01;1.98;;;1.40;;
81712;SDS011;71124;44.102;3.080;2023-09-19T12:22:42;2.45;;;1.30;;
81712;SDS011;71124;44.102;3.080;2023-09-19T12:25:08;2.25;;;1.50;;
81712;SDS011;71124;44.102;3.080;2023-09-19T12:27:45;3.65;;;1.50;;
81712;SDS011;71124;44.102;3.080;2023-09-19T12:30:17;3.10;;;1.40;;
81712;SDS011;71124;44.102;3.080;2023-09-19T12:32:45;1.80;;;1.23;;
81712;SDS011;71124;44.102;3.080;2023-09-19T12:35:26;2.45;;;1.30;;
81712;SDS011;71124;44.102;3.080;2023-09-19T12:37:53;2.90;;;1.40;;
81712;SDS011;71124;44.102;3.080;2023-09-19T12:40:20;3.08;;;1.50;;
81712;SDS011;71124;44.102;3.080;2023-09-19T12:42:50;2.17;;;1.20;;
81712;SDS011;71124;44.102;3.080;2023-09-19T12:45:15;2.88;;;1.50;;
81712;SDS011;71124;44.102;3.080;2023-09-19T12:50:26;2.10;;;1.50;;
81712;SDS011;71124;44.102;3.080;2023-09-19T12:52:54;2.17;;;1.55;;
81712;SDS011;71124;44.102;3.080;2023-09-19T12:55:27;3.38;;;1.60;;
81712;SDS011;71124;44.102;3.080;2023-09-19T13:00:34;2.85;;;1.58;;
81712;SDS011;71124;44.102;3.080;2023-09-19T13:03:09;1.63;;;1.25;;
81712;SDS011;71124;44.102;3.080;2023-09-19T13:05:55;2.83;;;1.60;;
81712;SDS011;71124;44.102;3.080;2023-09-19T13:08:29;1.48;;;1.27;;
81712;SDS011;71124;44.102;3.080;2023-09-19T13:14:13;2.15;;;1.27;;
81712;SDS011;71124;44.102;3.080;2023-09-19T13:16:55;2.85;;;1.58;;
81712;SDS011;71124;44.102;3.080;2023-09-19T13:22:05;2.25;;;1.35;;
81712;SDS011;71124;44.102;3.080;2023-09-19T13:24:33;3.65;;;1.70;;
81712;SDS011;71124;44.102;3.080;2023-09-19T13:27:00;2.03;;;1.40;;
81712;SDS011;71124;44.102;3.080;2023-09-19T13:29:25;1.57;;;1.20;;
81712;SDS011;71124;44.102;3.080;2023-09-19T13:31:51;2.30;;;1.30;;
81712;SDS011;71124;44.102;3.080;2023-09-19T13:34:18;3.17;;;1.55;;
81712;SDS011;71124;44.102;3.080;2023-09-19T13:36:43;1.67;;;1.13;;
81712;SDS011;71124;44.102;3.080;2023-09-19T13:39:09;2.83;;;1.48;;
81712;SDS011;71124;44.102;3.080;2023-09-19T13:41:34;2.50;;;1.67;;
81712;SDS011;71124;44.102;3.080;2023-09-19T13:44:04;3.03;;;1.50;;
81712;SDS011;71124;44.102;3.080;2023-09-19T13:46:29;3.95;;;1.50;;
81712;SDS011;71124;44.102;3.080;2023-09-19T13:48:58;4.07;;;1.30;;
81712;SDS011;71124;44.102;3.080;2023-09-19T13:51:25;2.53;;;1.33;;
81712;SDS011;71124;44.102;3.080;2023-09-19T13:53:50;1.40;;;1.30;;
81712;SDS011;71124;44.102;3.080;2023-09-19T13:56:16;3.50;;;1.40;;
81712;SDS011;71124;44.102;3.080;2023-09-19T13:58:41;2.08;;;1.10;;
81712;SDS011;71124;44.102;3.080;2023-09-19T14:01:07;3.15;;;1.30;;
81712;SDS011;71124;44.102;3.080;2023-09-19T14:03:37;2.47;;;1.17;;
81712;SDS011;71124;44.102;3.080;2023-09-19T14:06:02;1.77;;;1.00;;
81712;SDS011;71124;44.102;3.080;2023-09-19T14:08:27;1.97;;;1.10;;
81712;SDS011;71124;44.102;3.080;2023-09-19T14:10:53;1.93;;;1.20;;
81712;SDS011;71124;44.102;3.080;2023-09-19T14:13:18;2.50;;;1.10;;
81712;SDS011;71124;44.102;3.080;2023-09-19T14:15:45;2.90;;;1.15;;
81712;SDS011;71124;44.102;3.080;2023-09-19T14:18:10;2.92;;;1.10;;
81712;SDS011;71124;44.102;3.080;2023-09-19T14:20:37;2.03;;;1.10;;
81712;SDS011;71124;44.102;3.080;2023-09-19T14:23:03;1.40;;;1.00;;
81712;SDS011;71124;44.102;3.080;2023-09-19T14:25:28;1.63;;;0.93;;
81712;SDS011;71124;44.102;3.080;2023-09-19T14:27:55;2.67;;;1.00;;
81712;SDS011;71124;44.102;3.080;2023-09-19T14:30:20;1.53;;;1.00;;
81712;SDS011;71124;44.102;3.080;2023-09-19T14:32:46;3.15;;;1.15;;
81712;SDS011;71124;44.102;3.080;2023-09-19T14:35:11;2.70;;;1.23;;
81712;SDS011;71124;44.102;3.080;2023-09-19T14:37:38;2.55;;;1.40;;
81712;SDS011;71124;44.102;3.080;2023-09-19T14:40:05;2.63;;;1.17;;
81712;SDS011;71124;44.102;3.080;2023-09-19T14:42:33;2.50;;;1.30;;
81712;SDS011;71124;44.102;3.080;2023-09-19T14:45:01;3.17;;;1.20;;
81712;SDS011;71124;44.102;3.080;2023-09-19T14:47:26;1.67;;;0.90;;
81712;SDS011;71124;44.102;3.080;2023-09-19T14:49:52;2.42;;;1.05;;
81712;SDS011;71124;44.102;3.080;2023-09-19T14:52:18;2.27;;;1.20;;
81712;SDS011;71124;44.102;3.080;2023-09-19T14:54:43;3.88;;;1.20;;
81712;SDS011;71124;44.102;3.080;2023-09-19T14:57:09;2.65;;;1.20;;
81712;SDS011;71124;44.102;3.080;2023-09-19T14:59:35;3.08;;;1.15;;
81712;SDS011;71124;44.102;3.080;2023-09-19T15:02:03;3.08;;;1.20;;
81712;SDS011;71124;44.102;3.080;2023-09-19T15:04:29;1.95;;;1.20;;
81712;SDS011;71124;44.102;3.080;2023-09-19T15:06:54;3.65;;;1.20;;
81712;SDS011;71124;44.102;3.080;2023-09-19T15:09:20;3.83;;;0.88;;
81712;SDS011;71124;44.102;3.080;2023-09-19T15:11:49;1.63;;;0.95;;
81712;SDS011;71124;44.102;3.080;2023-09-19T15:14:14;2.03;;;1.00;;
81712;SDS011;71124;44.102;3.080;2023-09-19T15:16:39;2.57;;;1.07;;
81712;SDS011;71124;44.102;3.080;2023-09-19T15:19:06;4.05;;;1.20;;
81712;SDS011;71124;44.102;3.080;2023-09-19T15:21:32;3.97;;;1.40;;
81712;SDS011;71124;44.102;3.080;2023-09-19T15:23:57;2.90;;;0.93;;
81712;SDS011;71124;44.102;3.080;2023-09-19T15:26:22;3.17;;;1.00;;
81712;SDS011;71124;44.102;3.080;2023-09-19T15:28:50;2.22;;;1.23;;
81712;SDS011;71124;44.102;3.080;2023-09-19T15:31:15;2.10;;;1.00;;
81712;SDS011;71124;44.102;3.080;2023-09-19T15:33:41;2.63;;;1.20;;
81712;SDS011;71124;44.102;3.080;2023-09-19T15:36:07;3.20;;;1.20;;
81712;SDS011;71124;44.102;3.080;2023-09-19T15:38:54;1.88;;;1.00;;
81712;SDS011;71124;44.102;3.080;2023-09-19T15:41:21;4.10;;;1.15;;
81712;SDS011;71124;44.102;3.080;2023-09-19T15:43:48;2.53;;;1.02;;
81712;SDS011;71124;44.102;3.080;2023-09-19T15:46:13;2.97;;;1.10;;
81712;SDS011;71124;44.102;3.080;2023-09-19T15:48:40;2.45;;;1.10;;
81712;SDS011;71124;44.102;3.080;2023-09-19T15:51:05;1.73;;;1.20;;
81712;SDS011;71124;44.102;3.080;2023-09-19T15:53:41;2.37;;;1.00;;